createdAt,value
2023-04-06T00:02:18.354Z,98133.33
2023-04-06T00:04:46.276Z,98137.08
2023-04-06T00:07:14.145Z,98129.83
2023-04-06T00:09:42.028Z,98130.50
2023-04-06T00:12:09.794Z,98124.89
2023-04-06T00:14:38.678Z,98128.64
2023-04-06T00:17:06.441Z,98126.45
2023-04-06T00:19:34.251Z,98125.65
2023-04-06T00:22:02.086Z,98122.48
2023-04-06T00:24:29.872Z,98121.02
2023-04-06T00:26:57.658Z,98120.56
2023-04-06T00:29:25.368Z,98118.41
2023-04-06T00:31:53.226Z,98117.61
2023-04-06T00:34:21.118Z,98120.05
2023-04-06T00:36:48.883Z,98116.20
2023-04-06T00:39:17.982Z,98116.56
2023-04-06T00:41:50.112Z,98115.56
2023-04-06T00:44:19.593Z,98114.73
2023-04-06T00:46:47.337Z,98114.56
2023-04-06T00:49:15.336Z,98113.71
2023-04-06T00:51:43.344Z,98111.86
2023-04-06T00:54:11.086Z,98110.48
2023-04-06T00:56:38.914Z,98106.60
2023-04-06T01:01:35.028Z,98108.37
2023-04-06T01:04:06.508Z,98110.10
2023-04-06T01:06:40.127Z,98109.80
2023-04-06T01:09:08.260Z,98108.48
2023-04-06T01:11:36.818Z,98110.89
2023-04-06T01:14:05.711Z,98109.20
2023-04-06T01:16:46.834Z,98108.88
2023-04-06T01:19:20.255Z,98109.02
2023-04-06T01:21:51.530Z,98110.73
2023-04-06T01:24:25.740Z,98106.16
2023-04-06T01:27:02.389Z,98105.98
2023-04-06T01:29:37.504Z,98108.69
2023-04-06T01:32:07.215Z,98108.02
2023-04-06T01:34:37.900Z,98102.47
2023-04-06T01:37:06.539Z,98099.61
2023-04-06T01:39:34.387Z,98097.98
2023-04-06T01:42:03.003Z,98094.84
2023-04-06T01:44:32.433Z,98091.02
2023-04-06T01:47:09.728Z,98090.25
2023-04-06T01:49:37.826Z,98091.52
2023-04-06T01:52:06.217Z,98087.88
2023-04-06T01:54:35.648Z,98090.13
2023-04-06T01:57:16.563Z,98088.98
2023-04-06T01:59:52.118Z,98089.20
2023-04-06T02:02:41.179Z,98085.02
2023-04-06T02:05:14.189Z,98082.33
2023-04-06T02:07:42.386Z,98082.17
2023-04-06T02:10:14.909Z,98080.50
2023-04-06T02:12:44.130Z,98076.48
2023-04-06T02:15:14.337Z,98077.52
2023-04-06T02:17:42.724Z,98078.56
2023-04-06T02:20:11.115Z,98082.31
2023-04-06T02:22:38.846Z,98079.46
2023-04-06T02:25:06.980Z,98080.00
2023-04-06T02:27:34.943Z,98079.51
2023-04-06T02:30:03.178Z,98078.16
2023-04-06T02:32:31.263Z,98076.47
2023-04-06T02:34:59.609Z,98074.96
2023-04-06T02:37:27.462Z,98075.82
2023-04-06T02:39:55.341Z,98075.33
2023-04-06T02:42:26.724Z,98072.13
2023-04-06T02:44:54.666Z,98073.50
2023-04-06T02:47:25.746Z,98075.37
2023-04-06T02:49:53.811Z,98079.61
2023-04-06T02:52:22.153Z,98075.56
2023-04-06T02:54:49.994Z,98080.30
2023-04-06T02:57:20.348Z,98086.23
2023-04-06T02:59:48.162Z,98087.95
2023-04-06T03:02:27.209Z,98087.49
2023-04-06T03:04:57.350Z,98085.17
2023-04-06T03:07:30.355Z,98076.20
2023-04-06T03:09:58.102Z,98085.30
2023-04-06T03:12:25.815Z,98080.59
2023-04-06T03:15:16.173Z,98085.69
2023-04-06T03:17:47.659Z,98079.64
2023-04-06T03:20:38.099Z,98082.69
2023-04-06T03:23:05.991Z,98080.67
2023-04-06T03:25:36.809Z,98081.68
2023-04-06T03:28:06.923Z,98085.73
2023-04-06T03:30:38.505Z,98087.79
2023-04-06T03:33:06.845Z,98092.20
2023-04-06T03:35:38.562Z,98090.67
2023-04-06T03:38:06.545Z,98092.40
2023-04-06T03:40:34.332Z,98092.23
2023-04-06T03:43:02.317Z,98090.21
2023-04-06T03:45:31.286Z,98092.41
2023-04-06T03:47:59.144Z,98093.75
2023-04-06T03:50:27.067Z,98092.58
2023-04-06T03:52:54.946Z,98094.27
2023-04-06T03:55:22.757Z,98097.16
2023-04-06T03:57:50.567Z,98095.64
2023-04-06T04:00:19.318Z,98099.70
2023-04-06T04:02:48.589Z,98097.69
2023-04-06T04:05:16.620Z,98100.40
2023-04-06T04:07:44.394Z,98098.70
2023-04-06T04:10:13.248Z,98098.52
2023-04-06T04:12:41.245Z,98093.59
2023-04-06T04:15:09.457Z,98094.41
2023-04-06T04:17:37.339Z,98096.92
2023-04-06T04:20:07.328Z,98096.40
2023-04-06T04:22:35.688Z,98093.52
2023-04-06T04:25:03.473Z,98094.84
2023-04-06T04:27:32.394Z,98092.92
2023-04-06T04:30:00.348Z,98093.73
2023-04-06T04:32:28.206Z,98090.45
2023-04-06T04:34:56.722Z,98092.24
2023-04-06T04:37:33.981Z,98094.52
2023-04-06T04:40:02.014Z,98092.39
2023-04-06T04:42:31.783Z,98090.76
2023-04-06T04:45:00.381Z,98089.11
2023-04-06T04:47:34.310Z,98085.63
2023-04-06T04:50:02.081Z,98086.56
2023-04-06T04:52:33.958Z,98090.35
2023-04-06T04:55:15.465Z,98089.19
2023-04-06T04:57:44.955Z,98090.24
2023-04-06T05:00:13.452Z,98093.00
2023-04-06T05:02:42.906Z,98089.46
2023-04-06T05:05:30.890Z,98090.84
2023-04-06T05:07:58.925Z,98086.66
2023-04-06T05:10:41.808Z,98080.73
2023-04-06T05:13:09.952Z,98082.13
2023-04-06T05:15:37.943Z,98081.52
2023-04-06T05:18:11.861Z,98083.57
2023-04-06T05:20:43.563Z,98078.70
2023-04-06T05:23:12.546Z,98082.12
2023-04-06T05:25:43.806Z,98084.23
2023-04-06T05:28:16.643Z,98089.21
2023-04-06T05:30:45.697Z,98088.12
2023-04-06T05:33:14.115Z,98081.02
2023-04-06T05:36:17.900Z,98077.80
2023-04-06T05:38:47.438Z,98075.80
2023-04-06T05:41:30.959Z,98074.81
2023-04-06T05:43:58.899Z,98076.52
2023-04-06T05:46:27.240Z,98076.12
2023-04-06T05:48:56.068Z,98075.71
2023-04-06T05:51:26.337Z,98074.57
2023-04-06T05:53:54.165Z,98073.28
2023-04-06T05:56:23.173Z,98072.34
2023-04-06T05:58:53.810Z,98072.56
2023-04-06T06:01:26.355Z,98073.63
2023-04-06T06:03:54.296Z,98074.85
2023-04-06T06:06:23.823Z,98070.08
2023-04-06T06:09:16.268Z,98069.98
2023-04-06T06:11:51.569Z,98069.84
2023-04-06T06:14:19.985Z,98066.02
2023-04-06T06:16:50.315Z,98065.46
2023-04-06T06:19:18.636Z,98064.77
2023-04-06T06:21:47.721Z,98068.02
2023-04-06T06:24:16.422Z,98067.63
2023-04-06T06:26:46.793Z,98070.23
2023-04-06T06:29:18.447Z,98072.08
2023-04-06T06:31:46.523Z,98072.33
2023-04-06T06:34:18.058Z,98072.13
2023-04-06T06:36:48.404Z,98070.77
2023-04-06T06:39:17.871Z,98068.23
2023-04-06T06:41:46.239Z,98063.45
2023-04-06T06:44:26.852Z,98063.33
2023-04-06T06:47:12.372Z,98062.67
2023-04-06T06:50:11.986Z,98065.44
2023-04-06T06:52:44.112Z,98063.19
2023-04-06T06:55:17.305Z,98064.40
2023-04-06T06:58:08.033Z,98063.48
2023-04-06T07:00:56.312Z,98062.13
2023-04-06T07:03:56.396Z,98065.36
2023-04-06T07:06:29.150Z,98067.48
2023-04-06T07:09:04.069Z,98067.92
2023-04-06T07:11:35.600Z,98069.39
2023-04-06T07:14:28.406Z,98073.20
2023-04-06T07:17:26.240Z,98069.23
2023-04-06T07:19:59.758Z,98073.89
2023-04-06T07:22:38.905Z,98071.94
2023-04-06T07:25:29.964Z,98076.03
2023-04-06T07:27:59.652Z,98077.07
2023-04-06T07:30:32.721Z,98077.15
2023-04-06T07:33:02.174Z,98076.79
2023-04-06T07:35:30.962Z,98077.28
2023-04-06T07:37:59.010Z,98076.45
2023-04-06T07:40:26.943Z,98078.45
2023-04-06T07:42:56.211Z,98080.31
2023-04-06T07:45:28.237Z,98079.55
2023-04-06T07:47:56.719Z,98079.58
2023-04-06T07:50:25.921Z,98075.48
2023-04-06T07:52:54.114Z,98073.42
2023-04-06T07:55:25.847Z,98075.37
2023-04-06T07:57:58.983Z,98070.71
2023-04-06T08:00:46.075Z,98076.90
2023-04-06T08:03:14.227Z,98075.00
2023-04-06T08:05:42.576Z,98073.19
2023-04-06T08:08:10.497Z,98077.86
2023-04-06T08:10:39.960Z,98080.80
2023-04-06T08:13:07.680Z,98078.78
2023-04-06T08:15:35.631Z,98082.02
2023-04-06T08:18:04.126Z,98083.22
2023-04-06T08:20:32.085Z,98077.39
2023-04-06T08:22:59.997Z,98081.70
2023-04-06T08:25:28.449Z,98080.96
2023-04-06T08:27:56.299Z,98076.17
2023-04-06T08:30:24.127Z,98073.86
2023-04-06T08:32:52.093Z,98069.94
2023-04-06T08:35:20.049Z,98063.45
2023-04-06T08:37:48.077Z,98064.06
2023-04-06T08:40:16.155Z,98059.02
2023-04-06T08:42:50.545Z,98060.73
2023-04-06T08:45:19.080Z,98054.64
2023-04-06T08:47:47.567Z,98052.35
2023-04-06T08:50:16.707Z,98050.50
2023-04-06T08:52:50.845Z,98049.55
2023-04-06T08:55:18.883Z,98048.20
2023-04-06T08:57:47.533Z,98037.73
2023-04-06T09:00:16.570Z,98032.73
2023-04-06T09:02:46.322Z,98034.71
2023-04-06T09:05:14.584Z,98028.95
2023-04-06T09:07:42.718Z,98022.70
2023-04-06T09:10:14.993Z,98021.37
2023-04-06T09:12:45.286Z,98020.85
2023-04-06T09:15:22.132Z,98021.08
2023-04-06T09:17:55.248Z,98019.16
2023-04-06T09:20:25.332Z,98019.47
2023-04-06T09:22:53.553Z,98020.69
2023-04-06T09:25:22.898Z,98018.33
2023-04-06T09:28:01.565Z,98014.43
2023-04-06T09:31:00.861Z,98013.83
2023-04-06T09:33:31.205Z,98016.77
2023-04-06T09:36:01.842Z,98012.45
2023-04-06T09:38:57.748Z,98000.19
2023-04-06T09:41:37.582Z,98001.69
2023-04-06T09:44:08.739Z,98002.50
2023-04-06T09:46:58.917Z,97998.63
2023-04-06T09:49:40.589Z,97996.64
2023-04-06T09:52:11.890Z,97999.79
2023-04-06T09:54:40.560Z,97996.48
2023-04-06T09:57:14.866Z,97992.92
2023-04-06T09:59:49.659Z,97990.25
2023-04-06T10:02:31.647Z,97988.14
2023-04-06T10:05:19.981Z,97993.00
2023-04-06T10:10:25.173Z,97994.96
2023-04-06T10:12:55.851Z,97995.39
2023-04-06T10:15:29.706Z,97993.21
2023-04-06T10:17:58.842Z,97986.29
2023-04-06T10:20:30.250Z,97984.06
2023-04-06T10:23:19.870Z,97984.15
2023-04-06T10:26:17.157Z,97973.29
2023-04-06T10:29:03.511Z,97978.30
2023-04-06T10:31:31.449Z,97981.83
2023-04-06T10:34:04.909Z,97977.69
2023-04-06T10:36:35.937Z,97976.77
2023-04-06T10:39:05.167Z,97971.80
2023-04-06T10:41:37.778Z,97973.23
2023-04-06T10:44:09.138Z,97967.94
2023-04-06T10:46:53.099Z,97962.44
2023-04-06T10:49:21.291Z,97960.84
2023-04-06T10:51:55.183Z,97957.95
2023-04-06T10:54:25.873Z,97953.36
2023-04-06T10:56:53.706Z,97954.44
2023-04-06T10:59:22.101Z,97957.96
2023-04-06T11:02:10.370Z,97954.95
2023-04-06T11:04:52.058Z,97952.40
2023-04-06T11:07:23.990Z,97950.38
2023-04-06T11:10:04.818Z,97939.77
2023-04-06T11:12:43.261Z,97942.67
2023-04-06T11:15:13.526Z,97943.07
2023-04-06T11:17:41.498Z,97945.21
2023-04-06T11:20:11.551Z,97943.86
2023-04-06T11:22:49.428Z,97944.48
2023-04-06T11:25:17.394Z,97941.00
2023-04-06T11:27:45.903Z,97944.06
2023-04-06T11:30:14.318Z,97943.88
2023-04-06T11:32:43.741Z,97945.07
2023-04-06T11:35:12.444Z,97940.75
2023-04-06T11:37:40.372Z,97945.54
2023-04-06T11:40:10.290Z,97944.02
2023-04-06T11:42:38.172Z,97940.02
2023-04-06T11:45:08.170Z,97941.77
2023-04-06T11:47:37.045Z,97938.88
2023-04-06T11:50:11.868Z,97939.20
2023-04-06T11:52:41.006Z,97939.75
2023-04-06T11:55:12.964Z,97942.67
2023-04-06T11:57:40.912Z,97938.69
2023-04-06T12:00:10.104Z,97944.02
2023-04-06T12:02:38.585Z,97941.67
2023-04-06T12:05:07.504Z,97939.31
2023-04-06T12:07:35.462Z,97935.11
2023-04-06T12:10:04.033Z,97938.48
2023-04-06T12:12:32.333Z,97936.48
2023-04-06T12:15:04.274Z,97935.30
2023-04-06T12:17:32.324Z,97931.42
2023-04-06T12:20:26.995Z,97932.11
2023-04-06T12:23:00.294Z,97928.90
2023-04-06T12:25:31.142Z,97930.09
2023-04-06T12:28:23.147Z,97927.55
2023-04-06T12:30:51.685Z,97924.85
2023-04-06T12:33:22.827Z,97922.61
2023-04-06T12:35:54.581Z,97922.72
2023-04-06T12:38:22.383Z,97919.76
2023-04-06T12:40:50.148Z,97919.94
2023-04-06T12:43:18.134Z,97915.77
2023-04-06T12:45:46.100Z,97914.33
2023-04-06T12:48:14.471Z,97912.84
2023-04-06T12:50:42.554Z,97915.41
2023-04-06T12:53:11.119Z,97915.41
2023-04-06T12:55:38.943Z,97914.94
2023-04-06T12:58:07.119Z,97917.23
2023-04-06T13:00:35.680Z,97914.94
2023-04-06T13:03:28.450Z,97915.00
2023-04-06T13:05:56.402Z,97912.46
2023-04-06T13:08:24.568Z,97915.82
2023-04-06T13:10:52.731Z,97914.45
2023-04-06T13:13:30.229Z,97916.14
2023-04-06T13:16:03.182Z,97919.83
2023-04-06T13:18:31.641Z,97916.31
2023-04-06T13:20:59.951Z,97906.00
2023-04-06T13:23:29.645Z,97890.11
2023-04-06T13:25:58.350Z,97886.96
2023-04-06T13:28:27.065Z,97888.43
2023-04-06T13:30:55.394Z,97880.63
2023-04-06T13:33:23.714Z,97881.20
2023-04-06T13:35:51.798Z,97875.91
2023-04-06T13:38:19.816Z,97874.50
2023-04-06T13:40:48.031Z,97873.11
2023-04-06T13:43:21.749Z,97871.91
2023-04-06T13:45:50.727Z,97870.13
2023-04-06T13:48:18.945Z,97869.00
2023-04-06T13:50:47.358Z,97864.38
2023-04-06T13:53:15.281Z,97861.81
2023-04-06T13:55:43.500Z,97860.05
2023-04-06T13:58:11.589Z,97857.95
2023-04-06T14:00:43.624Z,97850.83
2023-04-06T14:03:31.505Z,97848.31
2023-04-06T14:06:05.161Z,97848.35
2023-04-06T14:08:50.209Z,97850.48
2023-04-06T14:11:18.211Z,97853.37
2023-04-06T14:13:46.791Z,97853.15
2023-04-06T14:16:15.041Z,97850.00
2023-04-06T14:18:42.983Z,97847.70
2023-04-06T14:21:14.573Z,97852.80
2023-04-06T14:23:45.230Z,97855.20
2023-04-06T14:26:16.537Z,97855.63
2023-04-06T14:28:46.024Z,97856.80
2023-04-06T14:31:26.512Z,97858.55
2023-04-06T14:33:54.527Z,97858.69
2023-04-06T14:36:22.369Z,97859.42
2023-04-06T14:38:50.826Z,97857.98
2023-04-06T14:41:25.455Z,97854.55
2023-04-06T14:44:02.947Z,97855.49
2023-04-06T14:46:34.394Z,97856.15
2023-04-06T14:49:05.690Z,97852.14
2023-04-06T14:51:36.063Z,97853.79
2023-04-06T14:54:04.183Z,97853.50
2023-04-06T14:56:34.799Z,97851.48
2023-04-06T14:59:06.321Z,97850.52
2023-04-06T15:01:38.072Z,97851.85
2023-04-06T15:04:08.219Z,97851.17
2023-04-06T15:06:38.596Z,97848.35
2023-04-06T15:09:06.369Z,97848.52
2023-04-06T15:11:34.562Z,97850.46
2023-04-06T15:14:02.904Z,97848.00
2023-04-06T15:16:30.732Z,97847.80
2023-04-06T15:18:59.311Z,97846.64
2023-04-06T15:21:30.297Z,97848.61
2023-04-06T15:24:00.527Z,97846.09
2023-04-06T15:26:30.749Z,97845.78
2023-04-06T15:29:01.085Z,97848.80
2023-04-06T15:31:37.779Z,97848.23
2023-04-06T15:34:07.099Z,97848.84
2023-04-06T15:36:34.902Z,97851.64
2023-04-06T15:39:03.414Z,97851.70
2023-04-06T15:41:31.817Z,97854.54
2023-04-06T15:43:59.722Z,97857.10
2023-04-06T15:46:28.508Z,97857.94
2023-04-06T15:48:57.242Z,97867.21
2023-04-06T15:51:25.098Z,97869.65
2023-04-06T15:53:52.964Z,97870.05
2023-04-06T15:56:21.264Z,97874.55
2023-04-06T15:58:49.646Z,97874.84
2023-04-06T16:01:18.447Z,97872.08
2023-04-06T16:03:47.088Z,97870.20
2023-04-06T16:06:14.979Z,97874.62
2023-04-06T16:08:42.786Z,97877.86
2023-04-06T16:11:10.978Z,97882.39
2023-04-06T16:13:38.987Z,97887.38
2023-04-06T16:16:07.148Z,97886.52
2023-04-06T16:18:36.566Z,97887.37
2023-04-06T16:21:04.582Z,97889.94
2023-04-06T16:23:32.436Z,97893.16
2023-04-06T16:26:00.841Z,97891.85
2023-04-06T16:28:28.613Z,97888.61
2023-04-06T16:30:56.627Z,97889.33
2023-04-06T16:33:24.801Z,97887.44
2023-04-06T16:35:55.601Z,97889.56
2023-04-06T16:38:23.703Z,97889.73
2023-04-06T16:41:01.499Z,97892.60
2023-04-06T16:43:29.376Z,97893.33
2023-04-06T16:45:57.250Z,97892.14
2023-04-06T16:48:25.406Z,97893.69
2023-04-06T16:50:53.357Z,97890.81
2023-04-06T16:53:21.229Z,97890.69
2023-04-06T16:55:49.349Z,97891.49
2023-04-06T16:58:17.373Z,97887.63
2023-04-06T17:00:47.731Z,97889.48
2023-04-06T17:03:16.331Z,97889.36
2023-04-06T17:05:44.634Z,97891.44
2023-04-06T17:08:12.730Z,97885.31
2023-04-06T17:10:41.708Z,97885.92
2023-04-06T17:13:19.742Z,97882.34
2023-04-06T17:15:47.766Z,97879.36
2023-04-06T17:18:15.640Z,97880.80
2023-04-06T17:20:43.621Z,97884.46
2023-04-06T17:23:11.811Z,97887.94
2023-04-06T17:25:39.678Z,97885.27
2023-04-06T17:28:07.651Z,97886.55
2023-04-06T17:30:36.543Z,97885.73
2023-04-06T17:33:04.510Z,97888.83
2023-04-06T17:35:32.625Z,97882.95
2023-04-06T17:38:01.176Z,97881.02
2023-04-06T17:40:29.023Z,97880.46
2023-04-06T17:42:57.065Z,97879.52
2023-04-06T17:45:25.085Z,97880.65
2023-04-06T17:47:53.078Z,97876.67
2023-04-06T17:50:21.581Z,97875.86
2023-04-06T17:52:52.769Z,97875.56
2023-04-06T17:55:20.939Z,97875.56
2023-04-06T17:57:51.972Z,97872.64
2023-04-06T18:00:20.846Z,97874.12
2023-04-06T18:02:55.344Z,97875.15
2023-04-06T18:05:26.483Z,97874.41
2023-04-06T18:07:54.468Z,97875.22
2023-04-06T18:10:22.760Z,97872.83
2023-04-06T18:12:51.689Z,97872.88
2023-04-06T18:15:19.523Z,97870.71
2023-04-06T18:17:47.484Z,97875.23
2023-04-06T18:20:18.666Z,97870.33
2023-04-06T18:22:46.878Z,97866.41
2023-04-06T18:25:14.691Z,97867.16
2023-04-06T18:27:43.879Z,97867.27
2023-04-06T18:30:15.348Z,97866.64
2023-04-06T18:32:43.638Z,97864.89
2023-04-06T18:35:12.100Z,97868.21
2023-04-06T18:37:40.208Z,97866.23
2023-04-06T18:40:08.708Z,97864.37
2023-04-06T18:42:41.693Z,97860.50
2023-04-06T18:45:18.922Z,97858.33
2023-04-06T18:47:47.492Z,97858.84
2023-04-06T18:50:18.177Z,97853.73
2023-04-06T18:52:49.699Z,97852.85
2023-04-06T18:55:17.831Z,97853.38
2023-04-06T18:57:48.733Z,97848.90
2023-04-06T19:00:17.387Z,97850.02
2023-04-06T19:02:48.939Z,97849.13
2023-04-06T19:05:17.133Z,97848.26
2023-04-06T19:07:45.697Z,97845.71
2023-04-06T19:10:33.726Z,97841.36
2023-04-06T19:13:04.874Z,97840.52
2023-04-06T19:15:33.412Z,97840.88
2023-04-06T19:18:01.371Z,97836.66
2023-04-06T19:20:29.874Z,97837.70
2023-04-06T19:22:58.119Z,97836.02
2023-04-06T19:25:26.035Z,97836.04
2023-04-06T19:27:56.486Z,97833.31
2023-04-06T19:30:24.552Z,97829.89
2023-04-06T19:32:55.363Z,97830.41
2023-04-06T19:35:23.721Z,97829.86
2023-04-06T19:37:51.948Z,97832.09
2023-04-06T19:40:22.682Z,97831.08
2023-04-06T19:42:50.942Z,97828.00
2023-04-06T19:45:19.309Z,97828.36
2023-04-06T19:47:47.552Z,97825.65
2023-04-06T19:50:16.034Z,97820.02
2023-04-06T19:52:43.967Z,97818.42
2023-04-06T19:55:11.841Z,97820.96
2023-04-06T19:57:40.038Z,97817.91
2023-04-06T20:00:08.416Z,97819.94
2023-04-06T20:02:39.158Z,97819.95
2023-04-06T20:05:07.467Z,97819.79
2023-04-06T20:07:35.338Z,97821.18
2023-04-06T20:10:04.624Z,97822.16
2023-04-06T20:12:32.533Z,97818.60
2023-04-06T20:15:00.464Z,97818.55
2023-04-06T20:17:28.535Z,97819.58
2023-04-06T20:19:56.676Z,97820.80
2023-04-06T20:22:24.704Z,97817.38
2023-04-06T20:24:52.801Z,97816.52
2023-04-06T20:27:20.583Z,97812.30
2023-04-06T20:29:48.481Z,97813.48
2023-04-06T20:32:16.357Z,97807.15
2023-04-06T20:34:44.280Z,97805.58
2023-04-06T20:37:12.049Z,97804.04
2023-04-06T20:39:39.884Z,97803.87
2023-04-06T20:42:07.877Z,97803.73
2023-04-06T20:44:35.966Z,97801.00
2023-04-06T20:47:04.036Z,97797.58
2023-04-06T20:49:31.933Z,97796.55
2023-04-06T20:51:59.822Z,97791.42
2023-04-06T20:54:27.809Z,97796.14
2023-04-06T20:56:55.791Z,97791.69
2023-04-06T20:59:23.644Z,97788.60
2023-04-06T21:01:51.531Z,97787.39
2023-04-06T21:04:19.766Z,97784.20
2023-04-06T21:06:51.090Z,97780.92
2023-04-06T21:09:18.930Z,97782.66
2023-04-06T21:11:46.696Z,97781.61
2023-04-06T21:14:14.522Z,97778.36
2023-04-06T21:16:42.351Z,97783.29
2023-04-06T21:19:10.430Z,97778.71
2023-04-06T21:21:38.273Z,97779.73
2023-04-06T21:24:06.282Z,97775.11
2023-04-06T21:26:35.009Z,97776.42
2023-04-06T21:29:02.996Z,97772.65
2023-04-06T21:31:30.801Z,97770.77
2023-04-06T21:33:58.650Z,97770.94
2023-04-06T21:36:26.542Z,97771.42
2023-04-06T21:38:54.473Z,97770.92
2023-04-06T21:41:22.227Z,97768.70
2023-04-06T21:43:49.961Z,97768.23
2023-04-06T21:46:17.740Z,97764.45
2023-04-06T21:48:45.570Z,97760.85
2023-04-06T21:51:20.303Z,97761.20
2023-04-06T21:53:48.572Z,97757.79
2023-04-06T21:56:20.287Z,97756.95
2023-04-06T21:58:48.410Z,97759.02
2023-04-06T22:01:16.220Z,97757.00
2023-04-06T22:03:44.241Z,97755.66
2023-04-06T22:06:12.365Z,97749.88
2023-04-06T22:08:40.231Z,97747.70
2023-04-06T22:11:08.874Z,97746.69
2023-04-06T22:13:37.116Z,97745.30
2023-04-06T22:16:05.064Z,97741.78
2023-04-06T22:18:33.185Z,97740.42
2023-04-06T22:21:01.335Z,97741.29
2023-04-06T22:23:30.146Z,97736.54
2023-04-06T22:25:57.870Z,97737.74
2023-04-06T22:28:25.849Z,97737.91
2023-04-06T22:30:53.727Z,97740.26
2023-04-06T22:33:24.019Z,97734.78
2023-04-06T22:35:51.942Z,97736.29
2023-04-06T22:38:19.910Z,97732.73
2023-04-06T22:40:47.635Z,97727.02
2023-04-06T22:43:15.349Z,97725.64
2023-04-06T22:45:43.229Z,97726.15
2023-04-06T22:48:13.207Z,97723.59
2023-04-06T22:50:41.275Z,97722.23
2023-04-06T22:53:09.212Z,97718.50
2023-04-06T22:55:39.572Z,97715.95
2023-04-06T22:58:07.492Z,97719.87
2023-04-06T23:00:40.525Z,97719.99
2023-04-06T23:03:08.636Z,97718.98
2023-04-06T23:05:36.665Z,97720.69
2023-04-06T23:08:08.850Z,97716.63
2023-04-06T23:10:41.908Z,97712.39
2023-04-06T23:13:10.313Z,97709.70
2023-04-06T23:15:38.278Z,97705.27
2023-04-06T23:18:06.105Z,97702.55
2023-04-06T23:20:34.067Z,97704.02
2023-04-06T23:23:01.769Z,97704.04
2023-04-06T23:25:29.437Z,97701.84
2023-04-06T23:27:57.236Z,97702.39
2023-04-06T23:30:24.937Z,97697.83
2023-04-06T23:32:52.673Z,97701.05
2023-04-06T23:35:20.515Z,97697.30
2023-04-06T23:37:48.337Z,97692.89
2023-04-06T23:40:16.200Z,97689.84
2023-04-06T23:42:44.144Z,97690.55
2023-04-06T23:45:11.997Z,97685.26
2023-04-06T23:47:39.734Z,97682.87
2023-04-06T23:50:07.685Z,97679.11
2023-04-06T23:52:35.347Z,97673.56
2023-04-06T23:55:03.370Z,97673.05
2023-04-06T23:57:31.146Z,97668.95
2023-04-06T23:59:58.855Z,97666.08
